sensor_id;sensor_type;location;lat;lon;timestamp;pressure;altitude;pressure_sealevel;temperature;humidity
21838;BME280;11081;45.946;6.140;2023-03-16T00:01:34;95272.63;;;5.19;62.56
21838;BME280;11081;45.946;6.140;2023-03-16T00:04:04;95268.25;;;5.20;62.03
21838;BME280;11081;45.946;6.140;2023-03-16T00:06:31;95282.53;;;5.16;62.67
21838;BME280;11081;45.946;6.140;2023-03-16T00:08:59;95275.75;;;5.15;63.44
21838;BME280;11081;45.946;6.140;2023-03-16T00:11:27;95275.94;;;5.13;62.35
21838;BME280;11081;45.946;6.140;2023-03-16T00:13:56;95278.84;;;5.04;62.85
21838;BME280;11081;45.946;6.140;2023-03-16T00:16:24;95279.28;;;5.07;63.65
21838;BME280;11081;45.946;6.140;2023-03-16T00:18:52;95276.78;;;4.99;63.36
21838;BME280;11081;45.946;6.140;2023-03-16T00:21:21;95276.34;;;4.96;64.44
21838;BME280;11081;45.946;6.140;2023-03-16T00:23:49;95276.72;;;4.93;64.21
21838;BME280;11081;45.946;6.140;2023-03-16T00:26:19;95272.78;;;4.97;64.13
21838;BME280;11081;45.946;6.140;2023-03-16T00:28:48;95274.03;;;5.01;64.25
21838;BME280;11081;45.946;6.140;2023-03-16T00:31:19;95275.63;;;5.02;65.13
21838;BME280;11081;45.946;6.140;2023-03-16T00:33:50;95278.84;;;5.04;64.84
21838;BME280;11081;45.946;6.140;2023-03-16T00:36:20;95280.81;;;5.02;64.90
21838;BME280;11081;45.946;6.140;2023-03-16T00:38:48;95279.72;;;4.96;64.26
21838;BME280;11081;45.946;6.140;2023-03-16T00:41:17;95281.53;;;4.96;65.26
21838;BME280;11081;45.946;6.140;2023-03-16T00:43:45;95285.69;;;4.97;64.44
21838;BME280;11081;45.946;6.140;2023-03-16T00:46:16;95278.56;;;4.99;64.80
21838;BME280;11081;45.946;6.140;2023-03-16T00:48:45;95280.81;;;5.02;64.23
21838;BME280;11081;45.946;6.140;2023-03-16T00:51:15;95278.94;;;4.96;65.36
21838;BME280;11081;45.946;6.140;2023-03-16T00:53:46;95282.19;;;4.83;64.78
21838;BME280;11081;45.946;6.140;2023-03-16T00:56:15;95279.06;;;4.87;64.29
21838;BME280;11081;45.946;6.140;2023-03-16T00:58:43;95282.25;;;4.89;65.09
21838;BME280;11081;45.946;6.140;2023-03-16T01:01:14;95279.66;;;4.89;64.25
21838;BME280;11081;45.946;6.140;2023-03-16T01:03:42;95267.47;;;4.83;64.88
21838;BME280;11081;45.946;6.140;2023-03-16T01:06:11;95263.38;;;4.74;65.12
21838;BME280;11081;45.946;6.140;2023-03-16T01:08:40;95263.00;;;4.77;64.94
21838;BME280;11081;45.946;6.140;2023-03-16T01:11:11;95264.97;;;4.75;65.40
21838;BME280;11081;45.946;6.140;2023-03-16T01:13:43;95261.41;;;4.76;64.80
21838;BME280;11081;45.946;6.140;2023-03-16T01:16:13;95258.22;;;4.74;65.31
21838;BME280;11081;45.946;6.140;2023-03-16T01:18:41;95259.81;;;4.75;64.90
21838;BME280;11081;45.946;6.140;2023-03-16T01:21:11;95263.38;;;4.74;64.97
21838;BME280;11081;45.946;6.140;2023-03-16T01:23:39;95252.25;;;4.74;65.20
21838;BME280;11081;45.946;6.140;2023-03-16T01:26:12;95252.78;;;4.69;65.09
21838;BME280;11081;45.946;6.140;2023-03-16T01:28:40;95250.56;;;4.66;64.58
21838;BME280;11081;45.946;6.140;2023-03-16T01:31:11;95250.19;;;4.69;64.28
21838;BME280;11081;45.946;6.140;2023-03-16T01:33:41;95243.44;;;4.68;65.05
21838;BME280;11081;45.946;6.140;2023-03-16T01:36:14;95252.78;;;4.69;65.21
21838;BME280;11081;45.946;6.140;2023-03-16T01:38:51;95240.06;;;4.68;65.23
21838;BME280;11081;45.946;6.140;2023-03-16T01:41:21;95246.03;;;4.68;65.54
21838;BME280;11081;45.946;6.140;2023-03-16T01:43:49;95237.91;;;4.71;64.73
21838;BME280;11081;45.946;6.140;2023-03-16T01:46:22;95233.97;;;4.75;64.85
21838;BME280;11081;45.946;6.140;2023-03-16T01:49:06;95244.59;;;4.66;65.55
21838;BME280;11081;45.946;6.140;2023-03-16T01:51:39;95237.97;;;4.42;65.96
21838;BME280;11081;45.946;6.140;2023-03-16T01:54:15;95233.34;;;4.22;66.62
21838;BME280;11081;45.946;6.140;2023-03-16T01:56:50;95228.19;;;4.22;66.33
21838;BME280;11081;45.946;6.140;2023-03-16T01:59:23;95236.72;;;4.38;66.24
21838;BME280;11081;45.946;6.140;2023-03-16T02:01:53;95225.53;;;4.52;65.84
21838;BME280;11081;45.946;6.140;2023-03-16T02:04:30;95217.19;;;4.50;66.09
21838;BME280;11081;45.946;6.140;2023-03-16T02:07:00;95211.75;;;4.45;65.85
21838;BME280;11081;45.946;6.140;2023-03-16T02:09:30;95210.16;;;4.44;66.06
21838;BME280;11081;45.946;6.140;2023-03-16T02:12:00;95206.59;;;4.45;66.20
21838;BME280;11081;45.946;6.140;2023-03-16T02:14:30;95197.44;;;4.42;66.10
21838;BME280;11081;45.946;6.140;2023-03-16T02:16:58;95190.72;;;4.48;66.00
21838;BME280;11081;45.946;6.140;2023-03-16T02:19:35;95192.69;;;4.46;65.10
21838;BME280;11081;45.946;6.140;2023-03-16T02:22:09;95193.88;;;4.43;65.07
21838;BME280;11081;45.946;6.140;2023-03-16T02:24:37;95192.25;;;4.42;65.40
21838;BME280;11081;45.946;6.140;2023-03-16T02:27:08;95192.88;;;4.44;65.32
21838;BME280;11081;45.946;6.140;2023-03-16T02:29:50;95188.25;;;4.40;65.59
21838;BME280;11081;45.946;6.140;2023-03-16T02:32:22;95193.06;;;4.43;65.04
21838;BME280;11081;45.946;6.140;2023-03-16T02:34:51;95196.25;;;4.45;64.88
21838;BME280;11081;45.946;6.140;2023-03-16T02:37:19;95203.03;;;4.46;65.21
21838;BME280;11081;45.946;6.140;2023-03-16T02:39:47;95203.75;;;4.40;65.12
21838;BME280;11081;45.946;6.140;2023-03-16T02:42:19;95210.88;;;4.38;65.54
21838;BME280;11081;45.946;6.140;2023-03-16T02:44:53;95209.25;;;4.37;66.29
21838;BME280;11081;45.946;6.140;2023-03-16T02:47:32;95202.50;;;4.36;66.59
21838;BME280;11081;45.946;6.140;2023-03-16T02:50:02;95217.19;;;4.35;66.75
21838;BME280;11081;45.946;6.140;2023-03-16T02:52:32;95208.94;;;4.40;65.77
21838;BME280;11081;45.946;6.140;2023-03-16T02:55:01;95216.22;;;4.36;66.53
21838;BME280;11081;45.946;6.140;2023-03-16T02:57:29;95214.91;;;4.25;66.02
21838;BME280;11081;45.946;6.140;2023-03-16T03:00:04;95209.13;;;4.23;66.53
21838;BME280;11081;45.946;6.140;2023-03-16T03:02:38;95214.28;;;4.23;66.00
21838;BME280;11081;45.946;6.140;2023-03-16T03:05:06;95216.63;;;4.18;66.29
21838;BME280;11081;45.946;6.140;2023-03-16T03:07:35;95213.38;;;4.16;66.58
21838;BME280;11081;45.946;6.140;2023-03-16T03:10:06;95210.19;;;4.14;66.25
21838;BME280;11081;45.946;6.140;2023-03-16T03:12:34;95219.69;;;4.14;66.35
21838;BME280;11081;45.946;6.140;2023-03-16T03:15:08;95218.81;;;4.07;66.91
21838;BME280;11081;45.946;6.140;2023-03-16T03:17:45;95215.63;;;4.05;66.48
21838;BME280;11081;45.946;6.140;2023-03-16T03:20:13;95209.03;;;4.02;67.08
21838;BME280;11081;45.946;6.140;2023-03-16T03:22:44;95209.56;;;4.12;66.75
21838;BME280;11081;45.946;6.140;2023-03-16T03:25:14;95210.19;;;4.14;66.93
21838;BME280;11081;45.946;6.140;2023-03-16T03:27:45;95216.94;;;4.15;66.91
21838;BME280;11081;45.946;6.140;2023-03-16T03:30:18;95216.63;;;4.18;66.88
21838;BME280;11081;45.946;6.140;2023-03-16T03:32:47;95217.59;;;4.17;66.79
21838;BME280;11081;45.946;6.140;2023-03-16T03:35:17;95207.34;;;4.09;67.55
21838;BME280;11081;45.946;6.140;2023-03-16T03:37:46;95214.81;;;4.04;67.46
21838;BME280;11081;45.946;6.140;2023-03-16T03:40:17;95204.41;;;3.97;68.08
21838;BME280;11081;45.946;6.140;2023-03-16T03:42:49;95199.69;;;4.01;67.67
21838;BME280;11081;45.946;6.140;2023-03-16T03:45:18;95198.09;;;4.00;67.28
21838;BME280;11081;45.946;6.140;2023-03-16T03:47:46;95200.50;;;4.02;68.11
21838;BME280;11081;45.946;6.140;2023-03-16T03:50:18;95206.81;;;3.99;67.36
21838;BME280;11081;45.946;6.140;2023-03-16T03:53:06;95216.22;;;3.92;66.75
21838;BME280;11081;45.946;6.140;2023-03-16T03:55:47;95211.69;;;3.94;66.89
21838;BME280;11081;45.946;6.140;2023-03-16T03:58:15;95205.56;;;3.95;66.58
21838;BME280;11081;45.946;6.140;2023-03-16T04:00:45;95213.94;;;3.97;66.88
21838;BME280;11081;45.946;6.140;2023-03-16T04:03:13;95209.41;;;3.99;66.42
21838;BME280;11081;45.946;6.140;2023-03-16T04:05:43;95208.41;;;4.00;67.43
21838;BME280;11081;45.946;6.140;2023-03-16T04:08:11;95209.41;;;3.99;67.22
21838;BME280;11081;45.946;6.140;2023-03-16T04:10:39;95210.38;;;3.98;66.95
21838;BME280;11081;45.946;6.140;2023-03-16T04:13:07;95222.94;;;4.01;66.55
21838;BME280;11081;45.946;6.140;2023-03-16T04:15:36;95216.78;;;4.02;67.37
21838;BME280;11081;45.946;6.140;2023-03-16T04:18:11;95214.28;;;3.94;67.62
21838;BME280;11081;45.946;6.140;2023-03-16T04:20:40;95213.47;;;3.93;67.62
21838;BME280;11081;45.946;6.140;2023-03-16T04:23:12;95199.16;;;3.91;67.43
21838;BME280;11081;45.946;6.140;2023-03-16T04:25:42;95198.78;;;3.94;67.79
21838;BME280;11081;45.946;6.140;2023-03-16T04:28:13;95201.19;;;3.95;67.15
21838;BME280;11081;45.946;6.140;2023-03-16T04:30:46;95198.47;;;3.97;67.11
21838;BME280;11081;45.946;6.140;2023-03-16T04:33:25;95205.56;;;3.95;67.68
21838;BME280;11081;45.946;6.140;2023-03-16T04:35:53;95210.38;;;3.98;67.74
21838;BME280;11081;45.946;6.140;2023-03-16T04:38:22;95207.25;;;4.03;67.22
21838;BME280;11081;45.946;6.140;2023-03-16T04:40:54;95207.19;;;3.96;67.71
21838;BME280;11081;45.946;6.140;2023-03-16T04:43:26;95196.56;;;3.91;68.19
21838;BME280;11081;45.946;6.140;2023-03-16T04:46:01;95189.19;;;3.88;67.91
21838;BME280;11081;45.946;6.140;2023-03-16T04:48:31;95208.22;;;3.87;68.46
21838;BME280;11081;45.946;6.140;2023-03-16T04:51:01;95203.78;;;3.81;68.23
21838;BME280;11081;45.946;6.140;2023-03-16T04:53:32;95198.97;;;3.78;67.85
21838;BME280;11081;45.946;6.140;2023-03-16T04:56:07;95183.69;;;3.76;67.98
21838;BME280;11081;45.946;6.140;2023-03-16T04:58:36;95183.81;;;3.75;68.63
21838;BME280;11081;45.946;6.140;2023-03-16T05:01:05;95172.81;;;3.81;68.51
21838;BME280;11081;45.946;6.140;2023-03-16T05:03:35;95163.72;;;3.85;68.17
21838;BME280;11081;45.946;6.140;2023-03-16T05:06:03;95165.34;;;3.86;68.42
21838;BME280;11081;45.946;6.140;2023-03-16T05:08:33;95170.06;;;3.82;67.89
21838;BME280;11081;45.946;6.140;2023-03-16T05:11:01;95173.34;;;3.61;67.23
21838;BME280;11081;45.946;6.140;2023-03-16T05:13:33;95188.22;;;3.22;68.32
21838;BME280;11081;45.946;6.140;2023-03-16T05:16:03;95194.53;;;3.19;69.01
21838;BME280;11081;45.946;6.140;2023-03-16T05:18:37;95200.66;;;3.33;69.43
21838;BME280;11081;45.946;6.140;2023-03-16T05:21:05;95206.41;;;3.43;69.65
21838;BME280;11081;45.946;6.140;2023-03-16T05:23:54;95213.06;;;3.38;70.03
21838;BME280;11081;45.946;6.140;2023-03-16T05:26:22;95215.13;;;3.42;70.31
21838;BME280;11081;45.946;6.140;2023-03-16T05:28:51;95204.09;;;3.48;70.06
21838;BME280;11081;45.946;6.140;2023-03-16T05:31:23;95208.88;;;3.51;69.81
21838;BME280;11081;45.946;6.140;2023-03-16T05:33:57;95197.91;;;3.57;69.60
21838;BME280;11081;45.946;6.140;2023-03-16T05:36:25;95198.06;;;3.71;68.93
21838;BME280;11081;45.946;6.140;2023-03-16T05:38:59;95193.63;;;3.64;69.32
21838;BME280;11081;45.946;6.140;2023-03-16T05:41:35;95184.00;;;3.58;69.28
21838;BME280;11081;45.946;6.140;2023-03-16T05:44:10;95199.50;;;3.58;69.79
21838;BME280;11081;45.946;6.140;2023-03-16T05:47:02;95189.63;;;3.62;69.70
21838;BME280;11081;45.946;6.140;2023-03-16T05:49:34;95200.16;;;3.75;69.00
21838;BME280;11081;45.946;6.140;2023-03-16T05:52:07;95215.72;;;3.82;68.68
21838;BME280;11081;45.946;6.140;2023-03-16T05:54:35;95206.25;;;3.59;70.16
21838;BME280;11081;45.946;6.140;2023-03-16T05:57:03;95212.31;;;3.66;69.85
21838;BME280;11081;45.946;6.140;2023-03-16T05:59:33;95210.63;;;3.74;69.55
21838;BME280;11081;45.946;6.140;2023-03-16T06:02:02;95210.53;;;3.82;69.49
21838;BME280;11081;45.946;6.140;2023-03-16T06:04:31;95222.47;;;3.83;69.18
21838;BME280;11081;45.946;6.140;2023-03-16T06:07:00;95210.19;;;3.85;69.09
21838;BME280;11081;45.946;6.140;2023-03-16T06:09:29;95212.66;;;3.93;69.18
21838;BME280;11081;45.946;6.140;2023-03-16T06:11:58;95199.25;;;3.97;68.95
21838;BME280;11081;45.946;6.140;2023-03-16T06:14:26;95197.00;;;4.09;68.50
21838;BME280;11081;45.946;6.140;2023-03-16T06:16:56;95192.47;;;4.11;69.11
21838;BME280;11081;45.946;6.140;2023-03-16T06:19:24;95195.41;;;4.08;69.45
21838;BME280;11081;45.946;6.140;2023-03-16T06:21:57;95183.13;;;4.10;69.48
21838;BME280;11081;45.946;6.140;2023-03-16T06:24:27;95179.91;;;4.08;69.35
21838;BME280;11081;45.946;6.140;2023-03-16T06:26:55;95184.66;;;4.05;69.78
21838;BME280;11081;45.946;6.140;2023-03-16T06:29:29;95177.97;;;3.81;70.73
21838;BME280;11081;45.946;6.140;2023-03-16T06:31:59;95183.13;;;3.81;71.05
21838;BME280;11081;45.946;6.140;2023-03-16T06:34:28;95176.91;;;3.90;70.65
21838;BME280;11081;45.946;6.140;2023-03-16T06:36:56;95187.78;;;4.00;69.18
21838;BME280;11081;45.946;6.140;2023-03-16T06:39:24;95188.81;;;3.91;68.85
21838;BME280;11081;45.946;6.140;2023-03-16T06:41:54;95189.25;;;3.94;68.53
21838;BME280;11081;45.946;6.140;2023-03-16T06:44:22;95194.53;;;4.01;68.28
21838;BME280;11081;45.946;6.140;2023-03-16T06:47:07;95204.56;;;4.40;67.97
21838;BME280;11081;45.946;6.140;2023-03-16T06:49:36;95193.50;;;4.46;68.42
21838;BME280;11081;45.946;6.140;2023-03-16T06:52:12;95199.97;;;4.57;68.49
21838;BME280;11081;45.946;6.140;2023-03-16T06:54:40;95196.66;;;4.63;67.98
21838;BME280;11081;45.946;6.140;2023-03-16T06:57:10;95194.44;;;4.60;68.58
21838;BME280;11081;45.946;6.140;2023-03-16T06:59:39;95201.56;;;4.58;68.40
21838;BME280;11081;45.946;6.140;2023-03-16T07:02:08;95206.72;;;4.58;66.74
21838;BME280;11081;45.946;6.140;2023-03-16T07:04:38;95216.63;;;4.54;67.39
21838;BME280;11081;45.946;6.140;2023-03-16T07:07:06;95209.25;;;4.37;68.69
21838;BME280;11081;45.946;6.140;2023-03-16T07:09:34;95216.75;;;4.32;68.98
21838;BME280;11081;45.946;6.140;2023-03-16T07:12:07;95208.19;;;4.46;68.10
21838;BME280;11081;45.946;6.140;2023-03-16T07:14:37;95209.03;;;4.68;67.69
21838;BME280;11081;45.946;6.140;2023-03-16T07:17:08;95216.75;;;4.82;67.00
21838;BME280;11081;45.946;6.140;2023-03-16T07:19:37;95219.47;;;4.96;66.21
21838;BME280;11081;45.946;6.140;2023-03-16T07:22:05;95216.41;;;5.07;65.71
21838;BME280;11081;45.946;6.140;2023-03-16T07:24:36;95212.97;;;5.21;65.46
21838;BME280;11081;45.946;6.140;2023-03-16T07:27:04;95207.50;;;5.37;65.52
21838;BME280;11081;45.946;6.140;2023-03-16T07:29:33;95201.22;;;5.46;65.84
21838;BME280;11081;45.946;6.140;2023-03-16T07:32:04;95203.25;;;5.51;65.43
21838;BME280;11081;45.946;6.140;2023-03-16T07:34:36;95207.34;;;5.67;65.60
21838;BME280;11081;45.946;6.140;2023-03-16T07:37:06;95196.59;;;5.70;65.37
21838;BME280;11081;45.946;6.140;2023-03-16T07:39:35;95193.25;;;5.76;65.85
21838;BME280;11081;45.946;6.140;2023-03-16T07:42:08;95191.16;;;5.86;64.57
21838;BME280;11081;45.946;6.140;2023-03-16T07:44:46;95201.97;;;5.96;64.43
21838;BME280;11081;45.946;6.140;2023-03-16T07:47:18;95191.69;;;6.09;63.89
21838;BME280;11081;45.946;6.140;2023-03-16T07:49:48;95191.69;;;6.09;65.09
21838;BME280;11081;45.946;6.140;2023-03-16T07:52:16;95194.13;;;6.18;64.76
21838;BME280;11081;45.946;6.140;2023-03-16T07:54:45;95192.53;;;6.17;65.07
21838;BME280;11081;45.946;6.140;2023-03-16T07:57:14;95199.25;;;6.04;66.12
21838;BME280;11081;45.946;6.140;2023-03-16T07:59:43;95199.09;;;5.85;66.43
21838;BME280;11081;45.946;6.140;2023-03-16T08:02:15;95196.38;;;5.65;66.82
21838;BME280;11081;45.946;6.140;2023-03-16T08:04:45;95198.25;;;5.77;66.48
21838;BME280;11081;45.946;6.140;2023-03-16T08:07:15;95189.25;;;6.01;65.01
21838;BME280;11081;45.946;6.140;2023-03-16T08:10:09;95183.84;;;6.31;64.45
21838;BME280;11081;45.946;6.140;2023-03-16T08:12:50;95187.09;;;6.46;64.38
21838;BME280;11081;45.946;6.140;2023-03-16T08:15:18;95191.09;;;6.55;63.17
21838;BME280;11081;45.946;6.140;2023-03-16T08:17:49;95193.50;;;6.63;63.02
21838;BME280;11081;45.946;6.140;2023-03-16T08:20:24;95186.31;;;6.65;62.83
21838;BME280;11081;45.946;6.140;2023-03-16T08:22:52;95195.16;;;6.71;62.74
21838;BME280;11081;45.946;6.140;2023-03-16T08:25:25;95194.75;;;6.81;62.20
21838;BME280;11081;45.946;6.140;2023-03-16T08:28:07;95198.78;;;6.90;62.39
21838;BME280;11081;45.946;6.140;2023-03-16T08:30:43;95200.38;;;6.97;61.83
21838;BME280;11081;45.946;6.140;2023-03-16T08:33:23;95198.03;;;7.09;62.05
21838;BME280;11081;45.946;6.140;2023-03-16T08:35:53;95198.00;;;7.02;61.67
21838;BME280;11081;45.946;6.140;2023-03-16T08:38:21;95204.38;;;7.00;62.21
21838;BME280;11081;45.946;6.140;2023-03-16T08:40:51;95203.00;;;7.11;61.98
21838;BME280;11081;45.946;6.140;2023-03-16T08:43:20;95206.41;;;7.18;61.74
21838;BME280;11081;45.946;6.140;2023-03-16T08:45:50;95213.22;;;7.32;61.08
21838;BME280;11081;45.946;6.140;2023-03-16T08:48:23;95216.00;;;7.37;60.00
21838;BME280;11081;45.946;6.140;2023-03-16T08:50:53;95217.44;;;7.53;59.33
21838;BME280;11081;45.946;6.140;2023-03-16T08:53:21;95209.22;;;7.56;59.77
21838;BME280;11081;45.946;6.140;2023-03-16T08:55:48;95199.63;;;7.43;59.99
21838;BME280;11081;45.946;6.140;2023-03-16T08:58:17;95202.84;;;7.39;60.03
21838;BME280;11081;45.946;6.140;2023-03-16T09:00:45;95201.25;;;7.38;59.86
21838;BME280;11081;45.946;6.140;2023-03-16T09:03:16;95200.03;;;7.40;59.38
21838;BME280;11081;45.946;6.140;2023-03-16T09:05:43;95197.25;;;7.55;59.28
21838;BME280;11081;45.946;6.140;2023-03-16T09:08:13;95200.81;;;7.67;58.58
21838;BME280;11081;45.946;6.140;2023-03-16T09:10:41;95201.03;;;7.72;58.48
21838;BME280;11081;45.946;6.140;2023-03-16T09:13:09;95212.03;;;7.74;57.98
21838;BME280;11081;45.946;6.140;2023-03-16T09:15:37;95202.41;;;7.81;57.95
21838;BME280;11081;45.946;6.140;2023-03-16T09:18:05;95208.41;;;7.88;57.61
21838;BME280;11081;45.946;6.140;2023-03-16T09:20:33;95206.44;;;7.77;57.10
21838;BME280;11081;45.946;6.140;2023-03-16T09:23:02;95194.03;;;7.79;57.69
21838;BME280;11081;45.946;6.140;2023-03-16T09:25:31;95197.63;;;7.91;56.64
21838;BME280;11081;45.946;6.140;2023-03-16T09:27:59;95199.25;;;7.73;57.59
21838;BME280;11081;45.946;6.140;2023-03-16T09:30:27;95198.41;;;7.85;56.71
21838;BME280;11081;45.946;6.140;2023-03-16T09:32:55;95193.03;;;7.93;56.77
21838;BME280;11081;45.946;6.140;2023-03-16T09:35:24;95183.19;;;8.02;56.47
21838;BME280;11081;45.946;6.140;2023-03-16T09:37:52;95187.56;;;8.15;55.76
21838;BME280;11081;45.946;6.140;2023-03-16T09:40:34;95179.97;;;8.07;55.73
21838;BME280;11081;45.946;6.140;2023-03-16T09:43:19;95182.00;;;8.05;55.75
21838;BME280;11081;45.946;6.140;2023-03-16T09:45:57;95181.97;;;8.18;56.32
21838;BME280;11081;45.946;6.140;2023-03-16T09:48:27;95181.53;;;8.34;55.30
21838;BME280;11081;45.946;6.140;2023-03-16T09:50:57;95177.53;;;8.38;55.22
21838;BME280;11081;45.946;6.140;2023-03-16T09:53:28;95170.69;;;8.44;54.59
21838;BME280;11081;45.946;6.140;2023-03-16T09:56:01;95166.66;;;8.54;54.31
21838;BME280;11081;45.946;6.140;2023-03-16T09:58:30;95166.16;;;8.71;54.96
21838;BME280;11081;45.946;6.140;2023-03-16T10:01:05;95171.78;;;8.68;54.28
21838;BME280;11081;45.946;6.140;2023-03-16T10:03:52;95172.16;;;8.78;52.71
21838;BME280;11081;45.946;6.140;2023-03-16T10:06:25;95171.72;;;8.81;53.99
21838;BME280;11081;45.946;6.140;2023-03-16T10:08:59;95172.91;;;8.85;53.58
21838;BME280;11081;45.946;6.140;2023-03-16T10:11:32;95176.50;;;8.84;54.09
21838;BME280;11081;45.946;6.140;2023-03-16T10:14:09;95168.38;;;8.67;53.50
21838;BME280;11081;45.946;6.140;2023-03-16T10:16:46;95171.06;;;8.47;53.51
21838;BME280;11081;45.946;6.140;2023-03-16T10:19:19;95165.47;;;8.50;53.48
21838;BME280;11081;45.946;6.140;2023-03-16T10:21:52;95177.06;;;8.54;53.78
21838;BME280;11081;45.946;6.140;2023-03-16T10:24:35;95174.22;;;8.63;53.92
21838;BME280;11081;45.946;6.140;2023-03-16T10:27:15;95170.47;;;8.90;52.26
21838;BME280;11081;45.946;6.140;2023-03-16T10:29:46;95169.59;;;9.03;53.12
21838;BME280;11081;45.946;6.140;2023-03-16T10:32:16;95165.25;;;8.90;52.54
21838;BME280;11081;45.946;6.140;2023-03-16T10:34:51;95166.44;;;8.94;53.71
21838;BME280;11081;45.946;6.140;2023-03-16T10:37:20;95168.03;;;8.95;53.86
21838;BME280;11081;45.946;6.140;2023-03-16T10:39:51;95172.97;;;8.72;54.95
21838;BME280;11081;45.946;6.140;2023-03-16T10:42:23;95175.22;;;8.62;54.19
21838;BME280;11081;45.946;6.140;2023-03-16T10:44:57;95182.03;;;8.63;53.32
21838;BME280;11081;45.946;6.140;2023-03-16T10:47:30;95178.09;;;8.85;53.53
21838;BME280;11081;45.946;6.140;2023-03-16T10:49:58;95181.66;;;8.97;53.01
21838;BME280;11081;45.946;6.140;2023-03-16T10:52:39;95183.56;;;9.08;51.41
21838;BME280;11081;45.946;6.140;2023-03-16T10:55:10;95188.44;;;8.98;51.42
21838;BME280;11081;45.946;6.140;2023-03-16T10:57:48;95191.63;;;9.00;52.44
21838;BME280;11081;45.946;6.140;2023-03-16T11:00:20;95193.06;;;9.28;52.50
21838;BME280;11081;45.946;6.140;2023-03-16T11:02:50;95200.94;;;9.46;52.77
21838;BME280;11081;45.946;6.140;2023-03-16T11:05:29;95189.88;;;9.75;51.89
21838;BME280;11081;45.946;6.140;2023-03-16T11:08:00;95194.69;;;9.97;51.98
21838;BME280;11081;45.946;6.140;2023-03-16T11:10:31;95191.81;;;10.05;51.81
21838;BME280;11081;45.946;6.140;2023-03-16T11:13:16;95193.97;;;10.08;50.25
21838;BME280;11081;45.946;6.140;2023-03-16T11:15:48;95183.25;;;9.98;49.75
21838;BME280;11081;45.946;6.140;2023-03-16T11:18:36;95182.66;;;9.96;47.89
21838;BME280;11081;45.946;6.140;2023-03-16T11:21:10;95182.09;;;9.94;50.72
21838;BME280;11081;45.946;6.140;2023-03-16T11:23:45;95176.88;;;9.94;49.49
21838;BME280;11081;45.946;6.140;2023-03-16T11:26:20;95176.03;;;10.00;49.94
21838;BME280;11081;45.946;6.140;2023-03-16T11:28:56;95169.47;;;9.91;49.32
21838;BME280;11081;45.946;6.140;2023-03-16T11:31:37;95173.59;;;9.98;48.12
21838;BME280;11081;45.946;6.140;2023-03-16T11:34:13;95173.56;;;10.05;48.22
21838;BME280;11081;45.946;6.140;2023-03-16T11:36:47;95162.94;;;10.25;49.55
21838;BME280;11081;45.946;6.140;2023-03-16T11:39:26;95154.72;;;10.39;49.77
21838;BME280;11081;45.946;6.140;2023-03-16T11:42:07;95158.44;;;10.50;49.35
21838;BME280;11081;45.946;6.140;2023-03-16T11:44:43;95158.22;;;10.52;48.62
21838;BME280;11081;45.946;6.140;2023-03-16T11:50:17;95139.81;;;10.77;48.80
21838;BME280;11081;45.946;6.140;2023-03-16T11:52:57;95137.78;;;10.79;46.81
21838;BME280;11081;45.946;6.140;2023-03-16T11:55:36;95138.13;;;10.82;46.75
21838;BME280;11081;45.946;6.140;2023-03-16T11:58:20;95132.72;;;10.95;46.06
21838;BME280;11081;45.946;6.140;2023-03-16T12:01:00;95134.59;;;11.07;45.82
21838;BME280;11081;45.946;6.140;2023-03-16T12:03:55;95138.00;;;11.19;43.41
21838;BME280;11081;45.946;6.140;2023-03-16T12:06:42;95136.75;;;11.21;43.63
21838;BME280;11081;45.946;6.140;2023-03-16T12:09:41;95120.53;;;11.31;42.82
21838;BME280;11081;45.946;6.140;2023-03-16T12:12:24;95118.97;;;11.53;46.25
21838;BME280;11081;45.946;6.140;2023-03-16T12:15:07;95127.81;;;11.29;45.29
21838;BME280;11081;45.946;6.140;2023-03-16T12:17:44;95126.41;;;11.15;44.90
21838;BME280;11081;45.946;6.140;2023-03-16T12:20:16;95126.75;;;11.18;43.23
21838;BME280;11081;45.946;6.140;2023-03-16T12:22:49;95108.03;;;11.33;43.78
21838;BME280;11081;45.946;6.140;2023-03-16T12:25:21;95107.84;;;11.46;43.67
21838;BME280;11081;45.946;6.140;2023-03-16T12:27:52;95101.25;;;11.55;42.99
21838;BME280;11081;45.946;6.140;2023-03-16T12:30:29;95096.34;;;11.36;43.83
21838;BME280;11081;45.946;6.140;2023-03-16T12:33:07;95096.94;;;11.49;44.39
21838;BME280;11081;45.946;6.140;2023-03-16T12:35:43;95094.63;;;11.41;43.12
21838;BME280;11081;45.946;6.140;2023-03-16T12:38:19;95094.97;;;11.45;43.04
21838;BME280;11081;45.946;6.140;2023-03-16T12:40:57;95081.34;;;11.66;43.15
21838;BME280;11081;45.946;6.140;2023-03-16T12:43:44;95078.50;;;11.91;42.36
21838;BME280;11081;45.946;6.140;2023-03-16T12:46:18;95078.47;;;12.14;42.83
21838;BME280;11081;45.946;6.140;2023-03-16T12:48:56;95073.94;;;11.98;41.94
21838;BME280;11081;45.946;6.140;2023-03-16T12:51:32;95062.91;;;11.84;40.98
21838;BME280;11081;45.946;6.140;2023-03-16T12:54:01;95064.88;;;11.89;42.50
21838;BME280;11081;45.946;6.140;2023-03-16T12:56:33;95065.66;;;11.89;43.50
21838;BME280;11081;45.946;6.140;2023-03-16T12:59:03;95059.19;;;11.92;43.53
21838;BME280;11081;45.946;6.140;2023-03-16T13:01:37;95045.88;;;11.94;44.24
21838;BME280;11081;45.946;6.140;2023-03-16T13:04:10;95056.19;;;12.00;42.86
21838;BME280;11081;45.946;6.140;2023-03-16T13:06:43;95054.03;;;12.09;42.67
21838;BME280;11081;45.946;6.140;2023-03-16T13:09:17;95043.59;;;12.26;42.30
21838;BME280;11081;45.946;6.140;2023-03-16T13:11:48;95045.13;;;12.50;42.74
21838;BME280;11081;45.946;6.140;2023-03-16T13:14:33;95051.47;;;12.54;39.17
21838;BME280;11081;45.946;6.140;2023-03-16T13:17:20;95048.72;;;12.49;41.01
21838;BME280;11081;45.946;6.140;2023-03-16T13:20:04;95038.84;;;12.23;41.08
21838;BME280;11081;45.946;6.140;2023-03-16T13:22:43;95044.91;;;12.40;42.10
21838;BME280;11081;45.946;6.140;2023-03-16T13:25:15;95040.69;;;12.67;41.96
21838;BME280;11081;45.946;6.140;2023-03-16T13:27:46;95036.09;;;12.74;40.83
21838;BME280;11081;45.946;6.140;2023-03-16T13:30:17;95036.09;;;12.74;40.74
21838;BME280;11081;45.946;6.140;2023-03-16T13:32:46;95038.06;;;12.67;40.85
21838;BME280;11081;45.946;6.140;2023-03-16T13:35:17;95040.69;;;12.67;40.61
21838;BME280;11081;45.946;6.140;2023-03-16T13:37:46;95031.50;;;12.81;40.13
21838;BME280;11081;45.946;6.140;2023-03-16T13:40:17;95037.00;;;12.97;40.18